sensor_id;sensor_type;location;lat;lon;timestamp;pressure;altitude;pressure_sealevel;temperature;humidity
63739;BME280;68816;45.558;10.070;2023-04-25T00:00:30;99091.59;;;15.90;54.12
63739;BME280;68816;45.558;10.070;2023-04-25T00:02:55;99097.44;;;15.94;54.42
63739;BME280;68816;45.558;10.070;2023-04-25T00:05:22;99089.47;;;15.82;55.00
63739;BME280;68816;45.558;10.070;2023-04-25T00:07:49;99105.09;;;15.83;55.24
63739;BME280;68816;45.558;10.070;2023-04-25T00:10:15;99110.09;;;15.81;55.27
63739;BME280;68816;45.558;10.070;2023-04-25T00:12:40;99102.28;;;15.83;55.17
63739;BME280;68816;45.558;10.070;2023-04-25T00:15:07;99104.53;;;15.81;55.39
63739;BME280;68816;45.558;10.070;2023-04-25T00:17:32;99093.38;;;15.81;55.44
63739;BME280;68816;45.558;10.070;2023-04-25T00:20:00;99090.88;;;15.80;55.00
63739;BME280;68816;45.558;10.070;2023-04-25T00:22:25;99079.59;;;15.66;55.16
63739;BME280;68816;45.558;10.070;2023-04-25T00:24:51;99074.38;;;15.59;55.43
63739;BME280;68816;45.558;10.070;2023-04-25T00:27:18;99078.22;;;15.64;54.94
63739;BME280;68816;45.558;10.070;2023-04-25T00:29:44;99075.66;;;15.67;54.86
63739;BME280;68816;45.558;10.070;2023-04-25T00:32:09;99085.19;;;15.66;54.45
63739;BME280;68816;45.558;10.070;2023-04-25T00:34:35;99081.56;;;15.66;54.80
63739;BME280;68816;45.558;10.070;2023-04-25T00:37:01;99083.00;;;15.58;54.85
63739;BME280;68816;45.558;10.070;2023-04-25T00:39:30;99079.66;;;15.56;54.74
63739;BME280;68816;45.558;10.070;2023-04-25T00:41:55;99076.84;;;15.61;55.32
63739;BME280;68816;45.558;10.070;2023-04-25T00:44:22;99069.97;;;15.53;55.88
63739;BME280;68816;45.558;10.070;2023-04-25T00:46:48;99068.94;;;15.39;55.12
63739;BME280;68816;45.558;10.070;2023-04-25T00:49:14;99059.22;;;15.37;55.90
63739;BME280;68816;45.558;10.070;2023-04-25T00:51:42;99064.19;;;15.40;54.66
63739;BME280;68816;45.558;10.070;2023-04-25T00:54:11;99054.66;;;15.46;53.71
63739;BME280;68816;45.558;10.070;2023-04-25T00:56:37;99068.59;;;15.46;55.19
63739;BME280;68816;45.558;10.070;2023-04-25T00:59:03;99070.25;;;15.47;54.95
63739;BME280;68816;45.558;10.070;2023-04-25T01:01:29;99071.97;;;15.43;55.91
63739;BME280;68816;45.558;10.070;2023-04-25T01:03:58;99073.66;;;15.39;54.70
63739;BME280;68816;45.558;10.070;2023-04-25T01:06:24;99082.56;;;15.41;52.97
63739;BME280;68816;45.558;10.070;2023-04-25T01:08:51;99067.63;;;15.27;53.42
63739;BME280;68816;45.558;10.070;2023-04-25T01:11:16;99075.66;;;15.33;53.94
63739;BME280;68816;45.558;10.070;2023-04-25T01:13:42;99080.41;;;15.33;55.20
63739;BME280;68816;45.558;10.070;2023-04-25T01:16:07;99082.34;;;15.37;55.29
63739;BME280;68816;45.558;10.070;2023-04-25T01:18:33;99081.88;;;15.25;54.94
63739;BME280;68816;45.558;10.070;2023-04-25T01:21:16;99076.25;;;15.30;54.14
63739;BME280;68816;45.558;10.070;2023-04-25T01:23:42;99081.50;;;15.37;55.37
63739;BME280;68816;45.558;10.070;2023-04-25T01:26:11;99088.81;;;15.28;55.91
63739;BME280;68816;45.558;10.070;2023-04-25T01:28:38;99078.25;;;15.25;55.92
63739;BME280;68816;45.558;10.070;2023-04-25T01:31:06;99079.91;;;15.26;56.22
63739;BME280;68816;45.558;10.070;2023-04-25T01:33:32;99090.25;;;15.20;56.61
63739;BME280;68816;45.558;10.070;2023-04-25T01:35:58;99084.97;;;15.18;56.16
63739;BME280;68816;45.558;10.070;2023-04-25T01:38:23;99079.41;;;15.18;57.01
63739;BME280;68816;45.558;10.070;2023-04-25T01:40:50;99079.47;;;15.13;57.21
63739;BME280;68816;45.558;10.070;2023-04-25T01:43:17;99083.88;;;15.14;57.12
63739;BME280;68816;45.558;10.070;2023-04-25T01:45:42;99080.25;;;15.19;57.06
63739;BME280;68816;45.558;10.070;2023-04-25T01:48:09;99071.34;;;15.17;57.03
63739;BME280;68816;45.558;10.070;2023-04-25T01:50:35;99083.22;;;15.28;57.22
63739;BME280;68816;45.558;10.070;2023-04-25T01:53:00;99087.97;;;15.27;57.83
63739;BME280;68816;45.558;10.070;2023-04-25T01:55:27;99079.56;;;15.32;57.45
63739;BME280;68816;45.558;10.070;2023-04-25T01:57:53;99075.19;;;15.21;57.66
63739;BME280;68816;45.558;10.070;2023-04-25T02:00:18;99074.59;;;15.29;58.21
63739;BME280;68816;45.558;10.070;2023-04-25T02:02:44;99066.78;;;15.31;58.11
63739;BME280;68816;45.558;10.070;2023-04-25T02:05:09;99070.38;;;15.32;57.42
63739;BME280;68816;45.558;10.070;2023-04-25T02:07:35;99074.38;;;15.20;58.50
63739;BME280;68816;45.558;10.070;2023-04-25T02:10:01;99071.06;;;15.18;58.74
63739;BME280;68816;45.558;10.070;2023-04-25T02:12:27;99076.31;;;15.25;58.66
63739;BME280;68816;45.558;10.070;2023-04-25T02:14:53;99074.91;;;15.23;58.71
63739;BME280;68816;45.558;10.070;2023-04-25T02:17:18;99070.50;;;15.16;58.90
63739;BME280;68816;45.558;10.070;2023-04-25T02:19:44;99065.19;;;15.20;58.54
63739;BME280;68816;45.558;10.070;2023-04-25T02:22:10;99058.22;;;15.23;57.67
63739;BME280;68816;45.558;10.070;2023-04-25T02:24:35;99044.84;;;15.25;57.89
63739;BME280;68816;45.558;10.070;2023-04-25T02:27:01;99035.38;;;15.20;57.93
63739;BME280;68816;45.558;10.070;2023-04-25T02:29:27;99020.63;;;15.20;58.11
63739;BME280;68816;45.558;10.070;2023-04-25T02:31:52;99030.91;;;15.25;58.41
63739;BME280;68816;45.558;10.070;2023-04-25T02:34:18;99039.53;;;15.23;58.44
63739;BME280;68816;45.558;10.070;2023-04-25T02:36:43;99034.25;;;15.21;58.47
63739;BME280;68816;45.558;10.070;2023-04-25T02:39:09;99036.91;;;15.08;58.62
63739;BME280;68816;45.558;10.070;2023-04-25T02:41:35;99038.88;;;15.02;58.81
63739;BME280;68816;45.558;10.070;2023-04-25T02:44:00;99038.53;;;15.14;59.28
63739;BME280;68816;45.558;10.070;2023-04-25T02:46:26;99039.16;;;15.01;59.60
63739;BME280;68816;45.558;10.070;2023-04-25T02:48:51;99050.06;;;14.92;59.21
63739;BME280;68816;45.558;10.070;2023-04-25T02:51:17;99047.91;;;14.84;59.61
63739;BME280;68816;45.558;10.070;2023-04-25T02:53:42;99058.44;;;14.92;59.83
63739;BME280;68816;45.558;10.070;2023-04-25T02:56:08;99058.94;;;14.99;59.08
63739;BME280;68816;45.558;10.070;2023-04-25T02:58:33;99064.50;;;14.99;58.63
63739;BME280;68816;45.558;10.070;2023-04-25T03:00:59;99069.25;;;14.99;58.78
63739;BME280;68816;45.558;10.070;2023-04-25T03:03:24;99071.22;;;14.93;58.80
63739;BME280;68816;45.558;10.070;2023-04-25T03:05:50;99075.19;;;14.82;59.52
63739;BME280;68816;45.558;10.070;2023-04-25T03:08:17;99062.72;;;14.74;60.18
63739;BME280;68816;45.558;10.070;2023-04-25T03:10:42;99053.84;;;14.72;64.16
63739;BME280;68816;45.558;10.070;2023-04-25T03:13:08;99027.41;;;14.70;66.37
63739;BME280;68816;45.558;10.070;2023-04-25T03:15:35;99039.38;;;14.70;68.44
63739;BME280;68816;45.558;10.070;2023-04-25T03:18:00;99030.28;;;14.55;68.94
63739;BME280;68816;45.558;10.070;2023-04-25T03:20:26;99029.13;;;14.66;69.24
63739;BME280;68816;45.558;10.070;2023-04-25T03:22:51;99031.66;;;14.57;68.30
63739;BME280;68816;45.558;10.070;2023-04-25T03:25:17;99051.50;;;14.41;67.74
63739;BME280;68816;45.558;10.070;2023-04-25T03:27:42;99070.94;;;14.46;69.50
63739;BME280;68816;45.558;10.070;2023-04-25T03:30:08;99077.97;;;14.18;69.61
63739;BME280;68816;45.558;10.070;2023-04-25T03:32:34;99086.06;;;14.14;70.78
63739;BME280;68816;45.558;10.070;2023-04-25T03:34:59;99081.09;;;14.01;71.21
63739;BME280;68816;45.558;10.070;2023-04-25T03:37:25;99089.66;;;14.10;70.45
63739;BME280;68816;45.558;10.070;2023-04-25T03:39:50;99098.28;;;14.18;69.52
63739;BME280;68816;45.558;10.070;2023-04-25T03:42:16;99105.53;;;14.14;69.09
63739;BME280;68816;45.558;10.070;2023-04-25T03:44:42;99109.69;;;14.12;67.59
63739;BME280;68816;45.558;10.070;2023-04-25T03:47:07;99092.75;;;14.13;70.43
63739;BME280;68816;45.558;10.070;2023-04-25T03:49:34;99111.31;;;14.23;69.65
63739;BME280;68816;45.558;10.070;2023-04-25T03:51:59;99125.25;;;14.18;65.33
63739;BME280;68816;45.558;10.070;2023-04-25T03:54:25;99127.53;;;13.90;65.90
63739;BME280;68816;45.558;10.070;2023-04-25T03:56:51;99126.72;;;13.75;66.98
63739;BME280;68816;45.558;10.070;2023-04-25T03:59:16;99117.84;;;13.73;67.92
63739;BME280;68816;45.558;10.070;2023-04-25T04:01:42;99121.72;;;13.82;67.28
63739;BME280;68816;45.558;10.070;2023-04-25T04:04:07;99116.72;;;13.79;68.03
63739;BME280;68816;45.558;10.070;2023-04-25T04:06:33;99096.16;;;13.75;65.27
63739;BME280;68816;45.558;10.070;2023-04-25T04:08:59;99093.09;;;13.81;64.23
63739;BME280;68816;45.558;10.070;2023-04-25T04:11:24;99090.06;;;13.73;64.29
63739;BME280;68816;45.558;10.070;2023-04-25T04:13:50;99091.16;;;13.72;64.65
63739;BME280;68816;45.558;10.070;2023-04-25T04:16:15;99083.66;;;13.72;63.69
63739;BME280;68816;45.558;10.070;2023-04-25T04:18:41;99101.47;;;13.61;63.25
63739;BME280;68816;45.558;10.070;2023-04-25T04:21:07;99105.88;;;13.57;65.04
63739;BME280;68816;45.558;10.070;2023-04-25T04:23:32;99121.19;;;13.44;64.72
63739;BME280;68816;45.558;10.070;2023-04-25T04:25:58;99120.91;;;13.41;65.67
63739;BME280;68816;45.558;10.070;2023-04-25T04:28:24;99132.56;;;13.48;66.85
63739;BME280;68816;45.558;10.070;2023-04-25T04:30:51;99124.78;;;13.40;67.06
63739;BME280;68816;45.558;10.070;2023-04-25T04:33:17;99125.63;;;13.30;67.60
63739;BME280;68816;45.558;10.070;2023-04-25T04:35:46;99136.63;;;13.05;67.82
63739;BME280;68816;45.558;10.070;2023-04-25T04:38:13;99143.09;;;13.15;68.68
63739;BME280;68816;45.558;10.070;2023-04-25T04:40:41;99124.50;;;13.16;67.90
63739;BME280;68816;45.558;10.070;2023-04-25T04:43:08;99129.16;;;13.05;67.86
63739;BME280;68816;45.558;10.070;2023-04-25T04:45:35;99136.44;;;13.32;68.92
63739;BME280;68816;45.558;10.070;2023-04-25T04:48:01;99137.56;;;13.41;69.51
63739;BME280;68816;45.558;10.070;2023-04-25T04:50:27;99141.16;;;13.41;69.70
63739;BME280;68816;45.558;10.070;2023-04-25T04:52:52;99134.50;;;13.47;70.25
63739;BME280;68816;45.558;10.070;2023-04-25T04:55:19;99119.78;;;13.57;70.77
63739;BME280;68816;45.558;10.070;2023-04-25T04:57:45;99106.72;;;13.52;70.63
63739;BME280;68816;45.558;10.070;2023-04-25T05:00:11;99117.84;;;13.63;70.57
63739;BME280;68816;45.558;10.070;2023-04-25T05:02:39;99106.16;;;13.71;71.54
63739;BME280;68816;45.558;10.070;2023-04-25T05:05:05;99103.13;;;13.67;71.38
63739;BME280;68816;45.558;10.070;2023-04-25T05:07:31;99108.94;;;13.76;72.02
63739;BME280;68816;45.558;10.070;2023-04-25T05:09:56;99111.16;;;13.69;71.26
63739;BME280;68816;45.558;10.070;2023-04-25T05:12:22;99108.38;;;13.64;72.56
63739;BME280;68816;45.558;10.070;2023-04-25T05:14:47;99100.06;;;13.74;71.71
63739;BME280;68816;45.558;10.070;2023-04-25T05:17:13;99099.22;;;13.78;71.71
63739;BME280;68816;45.558;10.070;2023-04-25T05:19:38;99093.94;;;13.72;71.50
63739;BME280;68816;45.558;10.070;2023-04-25T05:22:04;99095.31;;;13.84;71.87
63739;BME280;68816;45.558;10.070;2023-04-25T05:24:30;99092.78;;;13.88;70.79
63739;BME280;68816;45.558;10.070;2023-04-25T05:26:56;99086.69;;;13.76;71.15
63739;BME280;68816;45.558;10.070;2023-04-25T05:29:22;99087.81;;;13.75;72.28
63739;BME280;68816;45.558;10.070;2023-04-25T05:31:47;99094.78;;;13.67;72.37
63739;BME280;68816;45.558;10.070;2023-04-25T05:34:13;99082.50;;;13.88;71.36
63739;BME280;68816;45.558;10.070;2023-04-25T05:36:39;99092.22;;;13.96;70.26
63739;BME280;68816;45.558;10.070;2023-04-25T05:39:05;99088.31;;;13.92;72.36
63739;BME280;68816;45.558;10.070;2023-04-25T05:41:31;99096.94;;;14.01;72.31
63739;BME280;68816;45.558;10.070;2023-04-25T05:43:57;99104.13;;;14.12;72.46
63739;BME280;68816;45.558;10.070;2023-04-25T05:46:22;99098.03;;;14.05;72.28
63739;BME280;68816;45.558;10.070;2023-04-25T05:48:50;99098.63;;;13.96;72.07
63739;BME280;68816;45.558;10.070;2023-04-25T05:51:15;99088.84;;;14.04;71.13
63739;BME280;68816;45.558;10.070;2023-04-25T05:53:41;99095.00;;;14.01;70.98
63739;BME280;68816;45.558;10.070;2023-04-25T05:56:07;99085.03;;;13.90;70.88
63739;BME280;68816;45.558;10.070;2023-04-25T05:58:33;99088.91;;;13.94;71.53
63739;BME280;68816;45.558;10.070;2023-04-25T06:00:59;99084.44;;;13.93;71.94
63739;BME280;68816;45.558;10.070;2023-04-25T06:03:24;99090.50;;;14.10;72.47
63739;BME280;68816;45.558;10.070;2023-04-25T06:05:50;99085.50;;;14.12;73.26
63739;BME280;68816;45.558;10.070;2023-04-25T06:08:15;99083.59;;;13.92;73.62
63739;BME280;68816;45.558;10.070;2023-04-25T06:10:41;99084.47;;;13.83;69.78
63739;BME280;68816;45.558;10.070;2023-04-25T06:13:06;99091.41;;;13.90;68.43
63739;BME280;68816;45.558;10.070;2023-04-25T06:15:32;99078.56;;;14.05;69.58
63739;BME280;68816;45.558;10.070;2023-04-25T06:17:58;99078.88;;;13.98;69.72
63739;BME280;68816;45.558;10.070;2023-04-25T06:20:24;99071.66;;;13.87;70.23
63739;BME280;68816;45.558;10.070;2023-04-25T06:22:50;99067.25;;;13.76;69.96
63739;BME280;68816;45.558;10.070;2023-04-25T06:25:17;99068.91;;;13.77;70.73
63739;BME280;68816;45.558;10.070;2023-04-25T06:27:42;99076.16;;;13.78;70.71
63739;BME280;68816;45.558;10.070;2023-04-25T06:30:08;99082.84;;;13.41;70.87
63739;BME280;68816;45.558;10.070;2023-04-25T06:32:34;99091.75;;;13.43;71.15
63739;BME280;68816;45.558;10.070;2023-04-25T06:35:00;99086.75;;;13.61;71.05
63739;BME280;68816;45.558;10.070;2023-04-25T06:37:26;99091.19;;;13.67;71.97
63739;BME280;68816;45.558;10.070;2023-04-25T06:39:51;99090.59;;;13.75;72.10
63739;BME280;68816;45.558;10.070;2023-04-25T06:42:17;99094.47;;;13.89;71.57
63739;BME280;68816;45.558;10.070;2023-04-25T06:44:43;99089.75;;;13.84;69.82
63739;BME280;68816;45.558;10.070;2023-04-25T06:47:08;99085.28;;;13.88;69.08
63739;BME280;68816;45.558;10.070;2023-04-25T06:49:34;99095.88;;;13.91;68.29
63739;BME280;68816;45.558;10.070;2023-04-25T06:51:59;99082.25;;;13.90;66.81
63739;BME280;68816;45.558;10.070;2023-04-25T06:54:25;99079.97;;;14.07;67.23
63739;BME280;68816;45.558;10.070;2023-04-25T06:56:53;99094.91;;;14.31;65.42
63739;BME280;68816;45.558;10.070;2023-04-25T06:59:18;99078.75;;;14.38;64.37
63739;BME280;68816;45.558;10.070;2023-04-25T07:01:44;99078.75;;;14.38;64.75
63739;BME280;68816;45.558;10.070;2023-04-25T07:04:09;99083.13;;;14.60;62.85
63739;BME280;68816;45.558;10.070;2023-04-25T07:06:35;99090.22;;;14.81;62.80
63739;BME280;68816;45.558;10.070;2023-04-25T07:09:03;99078.59;;;14.69;62.84
63739;BME280;68816;45.558;10.070;2023-04-25T07:11:30;99081.88;;;14.81;60.39
63739;BME280;68816;45.558;10.070;2023-04-25T07:13:56;99081.50;;;14.98;61.23
63739;BME280;68816;45.558;10.070;2023-04-25T07:16:22;99086.25;;;14.92;60.95
63739;BME280;68816;45.558;10.070;2023-04-25T07:18:48;99098.75;;;15.00;60.87
63739;BME280;68816;45.558;10.070;2023-04-25T07:21:13;99097.53;;;14.72;62.59
63739;BME280;68816;45.558;10.070;2023-04-25T07:23:39;99104.72;;;14.83;62.39
63739;BME280;68816;45.558;10.070;2023-04-25T07:26:06;99101.16;;;14.72;63.53
63739;BME280;68816;45.558;10.070;2023-04-25T07:28:31;99094.09;;;14.90;61.13
63739;BME280;68816;45.558;10.070;2023-04-25T07:30:57;99110.38;;;15.12;61.39
63739;BME280;68816;45.558;10.070;2023-04-25T07:33:23;99115.09;;;15.11;62.96
63739;BME280;68816;45.558;10.070;2023-04-25T07:35:48;99121.16;;;15.24;63.31
63739;BME280;68816;45.558;10.070;2023-04-25T07:38:15;99127.53;;;14.80;62.93
63739;BME280;68816;45.558;10.070;2023-04-25T07:40:40;99121.47;;;14.73;63.91
63739;BME280;68816;45.558;10.070;2023-04-25T07:43:06;99126.34;;;14.96;62.39
63739;BME280;68816;45.558;10.070;2023-04-25T07:45:31;99119.09;;;14.95;61.77
63739;BME280;68816;45.558;10.070;2023-04-25T07:47:57;99131.63;;;14.93;58.10
63739;BME280;68816;45.558;10.070;2023-04-25T07:50:23;99111.06;;;14.89;57.96
63739;BME280;68816;45.558;10.070;2023-04-25T07:52:48;99122.41;;;15.02;58.17
63739;BME280;68816;45.558;10.070;2023-04-25T07:55:14;99123.22;;;15.08;59.57
63739;BME280;68816;45.558;10.070;2023-04-25T07:57:39;99132.25;;;15.29;59.00
63739;BME280;68816;45.558;10.070;2023-04-25T08:00:06;99136.00;;;15.14;60.58
63739;BME280;68816;45.558;10.070;2023-04-25T08:02:34;99136.47;;;15.21;60.73
63739;BME280;68816;45.558;10.070;2023-04-25T08:05:00;99137.78;;;15.34;59.09
63739;BME280;68816;45.558;10.070;2023-04-25T08:07:25;99141.63;;;15.43;59.68
63739;BME280;68816;45.558;10.070;2023-04-25T08:09:51;99143.47;;;15.57;60.79
63739;BME280;68816;45.558;10.070;2023-04-25T08:12:17;99144.31;;;15.58;58.10
63739;BME280;68816;45.558;10.070;2023-04-25T08:14:43;99149.34;;;15.56;60.20
63739;BME280;68816;45.558;10.070;2023-04-25T08:17:09;99148.13;;;15.67;60.37
63739;BME280;68816;45.558;10.070;2023-04-25T08:19:35;99134.59;;;15.84;57.42
63739;BME280;68816;45.558;10.070;2023-04-25T08:22:15;99140.63;;;15.96;59.19
63739;BME280;68816;45.558;10.070;2023-04-25T08:24:44;99153.66;;;15.77;58.74
63739;BME280;68816;45.558;10.070;2023-04-25T08:27:09;99156.25;;;15.64;58.31
63739;BME280;68816;45.558;10.070;2023-04-25T08:29:35;99161.22;;;16.00;58.42
63739;BME280;68816;45.558;10.070;2023-04-25T08:32:00;99165.53;;;15.88;56.97
63739;BME280;68816;45.558;10.070;2023-04-25T08:34:26;99156.88;;;15.89;57.04
63739;BME280;68816;45.558;10.070;2023-04-25T08:36:52;99166.25;;;15.98;57.22
63739;BME280;68816;45.558;10.070;2023-04-25T08:39:17;99169.84;;;16.04;57.26
63739;BME280;68816;45.558;10.070;2023-04-25T08:41:43;99169.38;;;16.21;56.48
63739;BME280;68816;45.558;10.070;2023-04-25T08:44:12;99166.88;;;16.48;56.46
63739;BME280;68816;45.558;10.070;2023-04-25T08:46:39;99178.19;;;16.04;55.86
63739;BME280;68816;45.558;10.070;2023-04-25T08:49:08;99180.84;;;16.19;55.13
63739;BME280;68816;45.558;10.070;2023-04-25T08:51:44;99174.63;;;16.27;53.80
63739;BME280;68816;45.558;10.070;2023-04-25T08:54:12;99167.50;;;16.40;53.70
63739;BME280;68816;45.558;10.070;2023-04-25T08:56:41;99161.00;;;16.73;51.89
63739;BME280;68816;45.558;10.070;2023-04-25T08:59:10;99176.84;;;16.59;54.28
63739;BME280;68816;45.558;10.070;2023-04-25T09:01:35;99176.09;;;16.72;53.41
63739;BME280;68816;45.558;10.070;2023-04-25T09:04:02;99181.09;;;16.75;51.93
63739;BME280;68816;45.558;10.070;2023-04-25T09:06:29;99178.81;;;16.77;53.11
63739;BME280;68816;45.558;10.070;2023-04-25T09:09:04;99178.13;;;16.67;52.42
63739;BME280;68816;45.558;10.070;2023-04-25T09:11:31;99175.00;;;16.92;51.36
63739;BME280;68816;45.558;10.070;2023-04-25T09:14:16;99173.63;;;17.32;50.29
63739;BME280;68816;45.558;10.070;2023-04-25T09:19:26;99173.25;;;17.39;48.28
63739;BME280;68816;45.558;10.070;2023-04-25T09:21:56;99175.59;;;17.50;49.77
63739;BME280;68816;45.558;10.070;2023-04-25T09:26:59;99185.97;;;16.89;51.32
63739;BME280;68816;45.558;10.070;2023-04-25T09:29:31;99177.78;;;17.16;52.47
63739;BME280;68816;45.558;10.070;2023-04-25T09:34:42;99172.94;;;17.78;49.49
63739;BME280;68816;45.558;10.070;2023-04-25T09:37:11;99177.72;;;18.23;47.06
63739;BME280;68816;45.558;10.070;2023-04-25T09:39:37;99180.25;;;18.38;46.81
63739;BME280;68816;45.558;10.070;2023-04-25T09:42:04;99188.50;;;18.76;44.45
63739;BME280;68816;45.558;10.070;2023-04-25T09:44:30;99189.75;;;18.70;45.48
63739;BME280;68816;45.558;10.070;2023-04-25T09:46:55;99193.81;;;18.91;45.06
63739;BME280;68816;45.558;10.070;2023-04-25T09:49:22;99185.06;;;19.06;44.97
63739;BME280;68816;45.558;10.070;2023-04-25T09:51:58;99187.78;;;18.84;44.89
63739;BME280;68816;45.558;10.070;2023-04-25T09:54:24;99182.63;;;18.31;45.13
63739;BME280;68816;45.558;10.070;2023-04-25T09:56:52;99185.38;;;18.50;43.51
63739;BME280;68816;45.558;10.070;2023-04-25T09:59:21;99202.66;;;18.52;44.40
63739;BME280;68816;45.558;10.070;2023-04-25T10:01:48;99188.56;;;18.43;46.71
63739;BME280;68816;45.558;10.070;2023-04-25T10:04:19;99195.84;;;18.58;45.68
63739;BME280;68816;45.558;10.070;2023-04-25T10:06:48;99197.31;;;18.56;47.40
63739;BME280;68816;45.558;10.070;2023-04-25T10:09:14;99186.06;;;18.28;45.56
63739;BME280;68816;45.558;10.070;2023-04-25T10:11:41;99189.56;;;17.88;47.11
63739;BME280;68816;45.558;10.070;2023-04-25T10:14:06;99192.50;;;18.42;45.68
63739;BME280;68816;45.558;10.070;2023-04-25T10:16:32;99204.91;;;18.23;45.57
63739;BME280;68816;45.558;10.070;2023-04-25T10:18:58;99202.03;;;18.28;45.79
63739;BME280;68816;45.558;10.070;2023-04-25T10:21:24;99200.22;;;17.86;46.04
63739;BME280;68816;45.558;10.070;2023-04-25T10:23:52;99205.88;;;17.99;47.94
63739;BME280;68816;45.558;10.070;2023-04-25T10:26:18;99197.16;;;18.33;45.28
63739;BME280;68816;45.558;10.070;2023-04-25T10:29:01;99194.59;;;18.51;46.16
63739;BME280;68816;45.558;10.070;2023-04-25T10:31:29;99192.75;;;18.14;46.92
63739;BME280;68816;45.558;10.070;2023-04-25T10:33:54;99186.47;;;18.35;44.97
63739;BME280;68816;45.558;10.070;2023-04-25T10:36:22;99185.72;;;18.62;45.66
63739;BME280;68816;45.558;10.070;2023-04-25T10:38:50;99185.19;;;18.87;45.80
63739;BME280;68816;45.558;10.070;2023-04-25T10:41:18;99190.59;;;18.84;45.13
63739;BME280;68816;45.558;10.070;2023-04-25T10:43:48;99199.81;;;18.71;46.20
63739;BME280;68816;45.558;10.070;2023-04-25T10:46:30;99186.66;;;18.58;45.84
63739;BME280;68816;45.558;10.070;2023-04-25T10:49:01;99187.94;;;18.46;45.90
63739;BME280;68816;45.558;10.070;2023-04-25T10:51:34;99187.06;;;18.92;46.10
63739;BME280;68816;45.558;10.070;2023-04-25T10:54:00;99185.78;;;19.25;45.30
63739;BME280;68816;45.558;10.070;2023-04-25T10:59:03;99190.50;;;18.62;45.42
63739;BME280;68816;45.558;10.070;2023-04-25T11:01:36;99178.94;;;18.50;44.91
63739;BME280;68816;45.558;10.070;2023-04-25T11:04:01;99184.00;;;18.01;47.43
63739;BME280;68816;45.558;10.070;2023-04-25T11:09:17;99160.28;;;17.99;46.92
63739;BME280;68816;45.558;10.070;2023-04-25T11:11:53;99166.13;;;18.62;47.23
63739;BME280;68816;45.558;10.070;2023-04-25T11:14:19;99159.56;;;18.67;44.98
63739;BME280;68816;45.558;10.070;2023-04-25T11:16:45;99155.00;;;18.98;44.23
63739;BME280;68816;45.558;10.070;2023-04-25T11:19:10;99158.88;;;19.38;43.00
63739;BME280;68816;45.558;10.070;2023-04-25T11:21:36;99140.94;;;19.84;42.21
63739;BME280;68816;45.558;10.070;2023-04-25T11:24:02;99135.38;;;19.48;42.54
63739;BME280;68816;45.558;10.070;2023-04-25T11:26:28;99129.66;;;19.03;43.06
63739;BME280;68816;45.558;10.070;2023-04-25T11:28:57;99124.00;;;19.31;43.22
63739;BME280;68816;45.558;10.070;2023-04-25T11:31:25;99129.28;;;19.68;39.77
63739;BME280;68816;45.558;10.070;2023-04-25T11:33:50;99117.72;;;20.23;38.90
63739;BME280;68816;45.558;10.070;2023-04-25T11:36:16;99129.72;;;19.61;40.03
63739;BME280;68816;45.558;10.070;2023-04-25T11:38:42;99129.88;;;19.79;40.34
63739;BME280;68816;45.558;10.070;2023-04-25T11:41:07;99125.19;;;19.52;41.21
63739;BME280;68816;45.558;10.070;2023-04-25T11:43:33;99124.38;;;19.96;40.68
63739;BME280;68816;45.558;10.070;2023-04-25T11:45:58;99121.59;;;20.04;39.57
63739;BME280;68816;45.558;10.070;2023-04-25T11:48:24;99124.75;;;20.34;39.04
63739;BME280;68816;45.558;10.070;2023-04-25T11:50:49;99125.03;;;20.55;39.04
63739;BME280;68816;45.558;10.070;2023-04-25T11:53:17;99116.13;;;20.61;39.37
63739;BME280;68816;45.558;10.070;2023-04-25T11:55:43;99133.38;;;20.37;39.42
63739;BME280;68816;45.558;10.070;2023-04-25T11:58:08;99141.59;;;20.34;40.16
63739;BME280;68816;45.558;10.070;2023-04-25T12:00:34;99146.75;;;19.65;39.23
63739;BME280;68816;45.558;10.070;2023-04-25T12:03:00;99138.16;;;19.12;41.17
63739;BME280;68816;45.558;10.070;2023-04-25T12:05:29;99138.69;;;19.00;41.33
63739;BME280;68816;45.558;10.070;2023-04-25T12:07:56;99140.47;;;18.82;42.13
63739;BME280;68816;45.558;10.070;2023-04-25T12:10:21;99135.50;;;18.79;42.69
63739;BME280;68816;45.558;10.070;2023-04-25T12:12:49;99131.25;;;18.82;43.04
63739;BME280;68816;45.558;10.070;2023-04-25T12:15:17;99134.88;;;18.96;42.77
63739;BME280;68816;45.558;10.070;2023-04-25T12:17:46;99136.44;;;18.75;42.86
63739;BME280;68816;45.558;10.070;2023-04-25T12:20:14;99134.88;;;18.55;43.56
63739;BME280;68816;45.558;10.070;2023-04-25T12:22:41;99144.31;;;18.45;43.65
63739;BME280;68816;45.558;10.070;2023-04-25T12:25:11;99153.38;;;18.10;44.53
63739;BME280;68816;45.558;10.070;2023-04-25T12:27:37;99133.44;;;18.12;43.80
63739;BME280;68816;45.558;10.070;2023-04-25T12:30:03;99156.94;;;17.97;44.55
63739;BME280;68816;45.558;10.070;2023-04-25T12:32:29;99146.69;;;18.06;44.61
63739;BME280;68816;45.558;10.070;2023-04-25T12:34:54;99154.75;;;17.94;45.38
63739;BME280;68816;45.558;10.070;2023-04-25T12:37:21;99162.88;;;17.77;46.07
63739;BME280;68816;45.558;10.070;2023-04-25T12:39:46;99162.16;;;17.52;47.65
63739;BME280;68816;45.558;10.070;2023-04-25T12:42:11;99167.28;;;17.45;48.52
63739;BME280;68816;45.558;10.070;2023-04-25T12:44:38;99182.16;;;17.41;49.48
63739;BME280;68816;45.558;10.070;2023-04-25T12:47:03;99183.00;;;17.22;49.34
63739;BME280;68816;45.558;10.070;2023-04-25T12:49:29;99172.94;;;17.21;51.03
63739;BME280;68816;45.558;10.070;2023-04-25T12:51:55;99181.25;;;17.27;52.54
63739;BME280;68816;45.558;10.070;2023-04-25T12:54:20;99179.56;;;17.07;54.08
63739;BME280;68816;45.558;10.070;2023-04-25T12:56:45;99197.50;;;16.82;53.12
63739;BME280;68816;45.558;10.070;2023-04-25T12:59:11;99205.22;;;16.09;46.61